Time;durP1;ratioP1;P1;durP2;ratioP2;P2;SDS_P1;SDS_P2;PMS_P1;PMS_P2;Temp;Humidity;BMP_temperature;BMP_pressure;BME280_temperature;BME280_humidity;BME280_pressure;Samples;Min_cycle;Max_cycle;Signal;HPM_P1;HPM_P2
2021/07/22 00:00:17;;;;;;;11.93;8.55;;;16.70;91.90;;;;;;6222345;28;20053;-76
2021/07/22 00:03:20;;;;;;;9.93;6.03;;;16.70;92.10;;;;;;6221908;28;20129;-77
2021/07/22 00:06:22;;;;;;;8.38;7.03;;;16.70;92.40;;;;;;6222259;28;20053;-76
2021/07/22 00:09:24;;;;;;;8.50;7.32;;;16.70;92.50;;;;;;6222238;28;20085;-77
2021/07/22 00:12:26;;;;;;;10.90;6.90;;;16.60;92.70;;;;;;6220843;28;20462;-76
2021/07/22 00:15:28;;;;;;;9.93;7.50;;;16.50;93.00;;;;;;6221983;28;20139;-76
2021/07/22 00:18:33;;;;;;;9.05;7.50;;;16.50;93.20;;;;;;6221564;28;20119;-76
2021/07/22 00:21:35;;;;;;;12.52;7.53;;;16.50;93.50;;;;;;6222528;28;20054;-77
2021/07/22 00:24:37;;;;;;;9.75;8.00;;;16.50;93.60;;;;;;6221429;28;20470;-76
2021/07/22 00:27:39;;;;;;;9.50;8.05;;;16.40;93.80;;;;;;6221788;28;20068;-77
2021/07/22 00:30:41;;;;;;;9.40;7.35;;;16.40;94.10;;;;;;6222275;28;20053;-76
2021/07/22 00:33:44;;;;;;;10.00;8.57;;;16.30;94.40;;;;;;6222073;28;20463;-76
2021/07/22 00:36:45;;;;;;;11.93;7.47;;;16.40;94.70;;;;;;6221350;28;20049;-77
2021/07/22 00:39:47;;;;;;;10.23;6.72;;;16.40;94.60;;;;;;6221831;28;20125;-76
2021/07/22 00:43:00;;;;;;;10.00;7.82;;;16.30;94.70;;;;;;6221341;28;20627;-76
2021/07/22 00:46:02;;;;;;;9.93;8.30;;;16.30;95.20;;;;;;6221921;28;20140;-76
2021/07/22 00:49:08;;;;;;;8.52;7.13;;;16.30;95.10;;;;;;6221508;28;20053;-76
2021/07/22 00:52:10;;;;;;;9.93;7.65;;;16.20;95.30;;;;;;6221525;28;20069;-76
2021/07/22 00:55:14;;;;;;;10.93;8.80;;;16.10;95.60;;;;;;6221373;28;20527;-76
2021/07/22 00:58:16;;;;;;;8.52;7.38;;;16.10;96.10;;;;;;6221178;28;20049;-76
2021/07/22 01:01:18;;;;;;;14.80;8.63;;;16.00;96.10;;;;;;6224736;28;20065;-76
2021/07/22 01:04:21;;;;;;;9.35;7.15;;;16.00;96.40;;;;;;6225846;28;20112;-77
2021/07/22 01:07:23;;;;;;;10.20;8.13;;;16.00;96.60;;;;;;6225780;28;20129;-76
2021/07/22 01:10:25;;;;;;;11.38;7.80;;;15.90;96.60;;;;;;6226233;28;20076;-76
2021/07/22 01:13:27;;;;;;;8.70;7.80;;;15.90;96.90;;;;;;6225472;28;20073;-76
2021/07/22 01:16:29;;;;;;;9.65;8.00;;;15.90;97.10;;;;;;6225647;28;20078;-76
2021/07/22 01:19:32;;;;;;;11.68;8.13;;;15.90;97.10;;;;;;6225585;28;20116;-76
2021/07/22 01:22:35;;;;;;;14.00;8.60;;;15.90;97.10;;;;;;6225739;28;20074;-76
2021/07/22 01:25:37;;;;;;;7.88;7.03;;;15.80;97.30;;;;;;6225877;28;20053;-77
2021/07/22 01:28:39;;;;;;;10.70;7.40;;;15.80;97.40;;;;;;6225496;28;20128;-76
2021/07/22 01:31:40;;;;;;;9.35;8.00;;;15.80;97.50;;;;;;6225434;28;20128;-77
2021/07/22 01:34:42;;;;;;;13.57;7.47;;;15.70;97.70;;;;;;6225561;28;20052;-77
2021/07/22 01:37:45;;;;;;;10.65;7.82;;;15.60;97.70;;;;;;6225507;28;20137;-77
2021/07/22 01:40:47;;;;;;;12.40;8.00;;;15.60;97.90;;;;;;6225109;28;20046;-77
2021/07/22 01:43:49;;;;;;;12.13;7.88;;;15.60;98.10;;;;;;6225037;28;20128;-76
2021/07/22 01:46:51;;;;;;;16.98;9.15;;;15.60;98.30;;;;;;6224521;28;20454;-76
2021/07/22 01:49:53;;;;;;;9.98;7.47;;;15.50;98.50;;;;;;6225648;28;20073;-76
2021/07/22 01:52:56;;;;;;;9.38;7.88;;;15.50;98.70;;;;;;6224766;28;20073;-76
2021/07/22 01:55:58;;;;;;;12.07;7.18;;;15.50;98.80;;;;;;6224833;28;20121;-77
2021/07/22 01:58:59;;;;;;;13.10;7.97;;;15.50;98.80;;;;;;6224780;28;20049;-76
2021/07/22 02:02:01;;;;;;;10.00;8.15;;;15.50;99.00;;;;;;6225054;28;20511;-76
2021/07/22 02:05:04;;;;;;;9.02;7.85;;;15.50;99.10;;;;;;6224204;28;20132;-77
2021/07/22 02:08:07;;;;;;;12.23;7.55;;;15.50;99.20;;;;;;6224314;28;20519;-77
2021/07/22 02:11:09;;;;;;;14.38;9.30;;;15.50;99.30;;;;;;6224150;28;20128;-77
2021/07/22 02:14:11;;;;;;;8.50;7.68;;;15.60;99.20;;;;;;6223260;28;20060;-76
2021/07/22 02:17:13;;;;;;;9.10;7.78;;;15.60;99.10;;;;;;6225152;28;20148;-76
2021/07/22 02:20:15;;;;;;;14.68;7.72;;;15.70;99.10;;;;;;6224312;28;20064;-76
2021/07/22 02:23:18;;;;;;;12.02;7.53;;;15.80;98.90;;;;;;6230815;23;20086;-77
2021/07/22 02:26:20;;;;;;;8.07;7.28;;;15.90;98.90;;;;;;6200016;28;20054;-77
2021/07/22 02:29:22;;;;;;;13.35;10.40;;;16.00;98.80;;;;;;6201083;28;20180;-77
2021/07/22 02:32:25;;;;;;;9.32;8.02;;;16.00;98.50;;;;;;6200008;28;20181;-77
2021/07/22 02:35:27;;;;;;;8.82;7.90;;;16.00;98.40;;;;;;6200507;28;20423;-76
2021/07/22 02:38:30;;;;;;;10.38;8.27;;;16.10;98.20;;;;;;6199543;28;20055;-77
2021/07/22 02:41:32;;;;;;;11.68;8.38;;;16.10;98.10;;;;;;6200790;28;20197;-77
2021/07/22 02:44:38;;;;;;;27.25;8.88;;;16.00;98.30;;;;;;6199915;28;20061;-77
2021/07/22 02:47:40;;;;;;;8.88;7.63;;;16.10;98.50;;;;;;6199249;28;20474;-77
2021/07/22 02:50:42;;;;;;;7.05;6.35;;;16.00;98.00;;;;;;6200920;28;20130;-77
2021/07/22 02:53:45;;;;;;;10.98;8.68;;;16.00;97.90;;;;;;6200759;28;20062;-77
2021/07/22 02:56:47;;;;;;;10.18;8.68;;;16.00;98.40;;;;;;6200201;28;20050;-77
2021/07/22 02:59:49;;;;;;;8.82;7.78;;;16.00;98.20;;;;;;6199973;28;20089;-77
2021/07/22 03:02:51;;;;;;;15.48;8.05;;;16.00;98.30;;;;;;6199829;28;20046;-77
2021/07/22 03:05:53;;;;;;;8.40;7.10;;;16.00;98.40;;;;;;6199161;28;20141;-77
2021/07/22 03:08:56;;;;;;;11.95;8.38;;;16.00;98.60;;;;;;6199581;28;20050;-77
2021/07/22 03:11:58;;;;;;;9.55;8.00;;;16.00;98.90;;;;;;6199131;28;20125;-77
2021/07/22 03:15:01;;;;;;;9.85;7.28;;;16.00;99.00;;;;;;6197388;28;20046;-77
2021/07/22 03:18:02;;;;;;;10.75;7.80;;;16.00;99.10;;;;;;6199264;28;20523;-77
2021/07/22 03:21:05;;;;;;;11.88;9.02;;;15.90;99.00;;;;;;6198928;28;20077;-77
2021/07/22 03:24:08;;;;;;;11.85;7.78;;;15.90;99.10;;;;;;6199791;28;20046;-77
2021/07/22 03:27:10;;;;;;;12.73;8.65;;;16.00;99.30;;;;;;6200152;28;20523;-77
2021/07/22 03:30:13;;;;;;;10.65;7.05;;;16.10;99.50;;;;;;6198992;28;20493;-77
2021/07/22 03:33:15;;;;;;;9.85;7.25;;;16.10;99.30;;;;;;6198656;28;20054;-76
2021/07/22 03:36:17;;;;;;;8.30;6.72;;;16.20;98.70;;;;;;6198424;28;20124;-76
2021/07/22 03:39:20;;;;;;;10.10;7.47;;;16.30;98.70;;;;;;6198264;28;20054;-76
2021/07/22 03:42:25;;;;;;;9.50;7.10;;;16.50;98.50;;;;;;6198401;28;20057;-76
2021/07/22 03:45:27;;;;;;;9.90;7.88;;;16.70;97.80;;;;;;6198641;28;20050;-76
2021/07/22 03:48:28;;;;;;;13.80;7.68;;;16.80;96.90;;;;;;6197842;28;20213;-76
2021/07/22 03:51:30;;;;;;;8.75;7.47;;;16.80;96.30;;;;;;6197916;28;20046;-76
2021/07/22 03:54:33;;;;;;;11.77;7.75;;;16.80;96.30;;;;;;6197899;28;20447;-76
2021/07/22 03:57:35;;;;;;;9.15;7.53;;;16.70;96.30;;;;;;6198548;28;20089;-76
2021/07/22 04:00:37;;;;;;;9.02;7.38;;;16.60;96.50;;;;;;6197921;28;20113;-76
2021/07/22 04:03:39;;;;;;;11.13;8.43;;;16.50;97.20;;;;;;6197953;28;20050;-76
2021/07/22 04:06:40;;;;;;;11.95;7.80;;;16.50;97.60;;;;;;6197639;28;20071;-76
2021/07/22 04:09:45;;;;;;;9.10;7.93;;;16.60;97.70;;;;;;6198239;28;20046;-76
2021/07/22 04:12:47;;;;;;;11.15;8.15;;;16.60;97.40;;;;;;6197719;28;20065;-76
2021/07/22 04:15:48;;;;;;;13.52;8.63;;;16.60;97.70;;;;;;6195955;28;20082;-76
2021/07/22 04:18:50;;;;;;;10.63;9.18;;;16.60;97.80;;;;;;6174316;28;20463;-76
2021/07/22 04:21:52;;;;;;;15.20;8.38;;;16.70;98.40;;;;;;6173831;28;20082;-76
2021/07/22 04:24:55;;;;;;;7.43;6.53;;;16.80;98.40;;;;;;6173449;28;20106;-76
2021/07/22 04:27:57;;;;;;;9.77;7.78;;;17.10;97.60;;;;;;6173181;28;20186;-77
2021/07/22 04:30:59;;;;;;;9.00;7.32;;;17.30;96.70;;;;;;6173570;28;20190;-76
2021/07/22 04:34:01;;;;;;;9.50;6.95;;;17.30;96.30;;;;;;6175028;28;20054;-76
2021/07/22 04:37:05;;;;;;;10.32;7.75;;;17.30;96.30;;;;;;6178128;28;20079;-76
2021/07/22 04:40:09;;;;;;;9.85;7.47;;;17.40;96.20;;;;;;6178291;28;20169;-76
2021/07/22 04:43:11;;;;;;;10.02;7.72;;;17.50;95.40;;;;;;6178259;28;20133;-76
2021/07/22 04:46:13;;;;;;;8.55;7.18;;;17.60;94.90;;;;;;6178245;28;20065;-76
2021/07/22 04:49:14;;;;;;;9.93;7.90;;;17.80;94.30;;;;;;6178761;28;20178;-76
2021/07/22 04:52:16;;;;;;;7.63;6.22;;;17.90;93.50;;;;;;6178160;28;20090;-76
2021/07/22 04:55:19;;;;;;;12.05;7.13;;;18.10;92.40;;;;;;6177904;28;20130;-76
2021/07/22 04:58:21;;;;;;;7.45;6.22;;;18.40;91.40;;;;;;6177648;28;20057;-76
2021/07/22 05:01:23;;;;;;;7.85;6.72;;;18.60;90.20;;;;;;6178414;28;20054;-76
2021/07/22 05:04:25;;;;;;;9.23;6.28;;;18.80;88.10;;;;;;6177599;28;20129;-76
2021/07/22 05:07:27;;;;;;;7.85;6.93;;;19.00;86.20;;;;;;6177612;28;20042;-76
2021/07/22 05:10:30;;;;;;;13.13;6.05;;;19.10;84.40;;;;;;6177826;28;20046;-77
2021/07/22 05:13:35;;;;;;;11.98;6.00;;;19.20;83.90;;;;;;6178187;28;20073;-76
2021/07/22 05:16:37;;;;;;;6.85;5.72;;;19.20;82.50;;;;;;6190231;28;20050;-76
2021/07/22 05:19:38;;;;;;;8.32;6.57;;;19.30;83.10;;;;;;6201293;28;20685;-76
2021/07/22 05:22:40;;;;;;;11.52;7.93;;;19.70;81.50;;;;;;6201528;28;20193;-77
2021/07/22 05:25:43;;;;;;;7.68;5.95;;;20.10;79.10;;;;;;6201533;28;20141;-76
2021/07/22 05:28:45;;;;;;;8.13;6.00;;;20.20;77.30;;;;;;6201539;28;20054;-77
2021/07/22 05:31:47;;;;;;;6.65;5.90;;;20.30;76.60;;;;;;6201305;28;20134;-76
2021/07/22 05:34:49;;;;;;;7.70;5.38;;;20.50;74.90;;;;;;6201131;28;20578;-76
2021/07/22 05:37:53;;;;;;;8.60;5.03;;;20.60;74.10;;;;;;6201640;28;20149;-76
2021/07/22 05:40:56;;;;;;;6.72;5.40;;;20.60;73.10;;;;;;6201153;28;20096;-76
2021/07/22 05:43:57;;;;;;;7.50;5.55;;;20.70;72.70;;;;;;6200709;28;20085;-76
2021/07/22 05:46:59;;;;;;;11.50;7.68;;;20.80;72.30;;;;;;6200783;28;20097;-76
2021/07/22 05:50:01;;;;;;;6.13;5.53;;;20.80;72.00;;;;;;6201304;28;20052;-76
2021/07/22 05:53:03;;;;;;;9.65;6.22;;;20.90;71.90;;;;;;6200615;28;20140;-77
2021/07/22 05:56:06;;;;;;;8.98;5.25;;;21.10;70.50;;;;;;6200710;28;20129;-76
2021/07/22 05:59:08;;;;;;;8.23;6.05;;;21.00;69.90;;;;;;6200314;28;20132;-76
2021/07/22 06:02:10;;;;;;;7.28;5.97;;;21.10;69.90;;;;;;6200511;28;20140;-77
2021/07/22 06:05:11;;;;;;;20.63;6.88;;;21.20;69.40;;;;;;6188078;28;20607;-76
2021/07/22 06:08:13;;;;;;;6.43;5.15;;;21.20;69.20;;;;;;6208899;28;20045;-77
2021/07/22 06:11:17;;;;;;;8.95;6.65;;;21.20;69.10;;;;;;6215350;28;20046;-77
2021/07/22 06:14:19;;;;;;;14.02;8.20;;;21.30;68.90;;;;;;6200777;28;20086;-76
2021/07/22 06:17:20;;;;;;;7.30;6.47;;;21.40;68.00;;;;;;6209156;28;20058;-76
2021/07/22 06:20:22;;;;;;;8.23;5.50;;;21.40;68.10;;;;;;6242158;28;20175;-77
2021/07/22 06:23:24;;;;;;;8.98;5.78;;;21.40;68.00;;;;;;6231063;28;20168;-76
2021/07/22 06:26:27;;;;;;;11.73;7.20;;;21.50;67.90;;;;;;6224137;28;20578;-77
2021/07/22 06:29:30;;;;;;;6.93;5.30;;;21.60;68.10;;;;;;6224890;28;20406;-76
2021/07/22 06:32:32;;;;;;;10.43;7.18;;;22.10;67.10;;;;;;6223892;28;20053;-76
2021/07/22 06:35:35;;;;;;;6.93;5.68;;;22.40;65.80;;;;;;6224117;28;20064;-76
2021/07/22 06:38:37;;;;;;;8.85;5.85;;;23.00;63.60;;;;;;6223611;28;20503;-76
2021/07/22 06:41:40;;;;;;;7.50;5.75;;;23.30;62.80;;;;;;6224703;28;20042;-76
2021/07/22 06:44:42;;;;;;;7.38;6.57;;;23.70;61.00;;;;;;6223811;28;20046;-77
2021/07/22 06:47:43;;;;;;;7.22;4.88;;;24.10;60.40;;;;;;6223466;28;20080;-77
2021/07/22 06:50:45;;;;;;;9.38;6.07;;;24.20;59.30;;;;;;6223819;28;20050;-76
2021/07/22 06:53:48;;;;;;;8.93;5.10;;;24.00;59.10;;;;;;6225043;28;20050;-76
2021/07/22 06:56:51;;;;;;;10.18;5.68;;;23.80;59.20;;;;;;6223264;28;20046;-76
2021/07/22 06:59:53;;;;;;;8.23;6.00;;;23.60;59.90;;;;;;6223764;28;20064;-77
2021/07/22 07:02:55;;;;;;;8.07;5.70;;;23.40;60.00;;;;;;6224015;28;20427;-76
2021/07/22 07:05:57;;;;;;;9.50;6.00;;;23.20;60.80;;;;;;6222985;28;20549;-77
2021/07/22 07:08:58;;;;;;;7.50;4.68;;;23.40;60.90;;;;;;6223715;28;20057;-77
2021/07/22 07:12:01;;;;;;;7.25;6.05;;;23.60;60.50;;;;;;6223382;28;20049;-77
2021/07/22 07:15:04;;;;;;;9.43;5.72;;;23.90;59.60;;;;;;6223986;28;20050;-77
2021/07/22 07:18:05;;;;;;;7.55;4.97;;;23.90;59.80;;;;;;6232883;28;20132;-77
2021/07/22 07:21:07;;;;;;;8.98;6.45;;;23.90;59.00;;;;;;6228304;28;20129;-77
2021/07/22 07:24:09;;;;;;;10.68;5.97;;;23.90;59.50;;;;;;6222981;28;20563;-77
2021/07/22 07:27:12;;;;;;;8.48;7.20;;;24.10;58.70;;;;;;6223181;28;20177;-77
2021/07/22 07:30:16;;;;;;;10.05;5.95;;;24.20;58.00;;;;;;6223336;28;20050;-76
2021/07/22 07:33:18;;;;;;;5.75;5.22;;;24.10;58.40;;;;;;6223994;28;20096;-76
2021/07/22 07:36:20;;;;;;;12.25;6.32;;;24.30;59.30;;;;;;6222845;28;20049;-76
2021/07/22 07:39:22;;;;;;;6.85;5.82;;;24.50;58.60;;;;;;6222762;28;20052;-76
2021/07/22 07:42:25;;;;;;;7.22;4.97;;;24.70;58.00;;;;;;6222707;28;20180;-77
2021/07/22 07:45:27;;;;;;;7.82;5.88;;;25.10;57.50;;;;;;6223422;28;20054;-76
2021/07/22 07:48:29;;;;;;;7.32;5.00;;;25.40;57.20;;;;;;6222734;28;20128;-76
2021/07/22 07:51:30;;;;;;;6.32;4.93;;;25.60;55.80;;;;;;6223257;28;20257;-76
2021/07/22 07:54:32;;;;;;;7.15;5.50;;;25.60;55.50;;;;;;6222429;28;20052;-77
2021/07/22 07:57:36;;;;;;;7.30;5.63;;;25.80;55.90;;;;;;6222653;28;20129;-77
2021/07/22 08:00:38;;;;;;;7.95;5.53;;;25.90;54.80;;;;;;6224510;28;20418;-77
2021/07/22 08:03:40;;;;;;;6.20;5.57;;;25.90;54.40;;;;;;6222533;28;20131;-77
2021/07/22 08:06:41;;;;;;;7.50;4.68;;;25.90;54.40;;;;;;6222263;28;20125;-77
2021/07/22 08:09:44;;;;;;;7.63;5.03;;;26.10;55.00;;;;;;6222981;28;20108;-76
2021/07/22 08:12:47;;;;;;;5.85;5.25;;;26.20;54.10;;;;;;6202044;28;20042;-79
2021/07/22 08:15:49;;;;;;;6.95;5.30;;;26.10;54.30;;;;;;6202790;28;20507;-77
2021/07/22 08:18:52;;;;;;;9.13;5.82;;;26.00;54.00;;;;;;6205864;28;20119;-77
2021/07/22 08:21:53;;;;;;;9.50;4.90;;;26.00;54.30;;;;;;6225886;28;20129;-77
2021/07/22 08:24:55;;;;;;;10.15;5.45;;;26.10;53.90;;;;;;6223043;28;20052;-76
2021/07/22 08:27:58;;;;;;;11.15;5.88;;;26.20;54.30;;;;;;6221717;28;20185;-76
2021/07/22 08:31:00;;;;;;;7.03;5.60;;;26.20;53.40;;;;;;6221754;28;20124;-77
2021/07/22 08:34:02;;;;;;;9.45;5.15;;;26.30;54.20;;;;;;6222244;28;20580;-76
2021/07/22 08:37:09;;;;;;;6.72;5.20;;;26.30;54.30;;;;;;6221196;28;20064;-77
2021/07/22 08:40:12;;;;;;;5.57;5.07;;;26.50;54.20;;;;;;6221903;28;20532;-76
2021/07/22 08:43:15;;;;;;;10.10;5.93;;;26.60;53.40;;;;;;6221500;28;20129;-75
2021/07/22 08:46:17;;;;;;;9.95;4.75;;;26.70;53.10;;;;;;6221762;28;20140;-76
2021/07/22 08:49:19;;;;;;;7.97;5.55;;;26.50;51.40;;;;;;6222088;28;20054;-76
2021/07/22 08:52:21;;;;;;;12.05;4.85;;;26.40;52.40;;;;;;6221477;28;20707;-76
2021/07/22 08:55:23;;;;;;;8.40;5.13;;;26.50;51.60;;;;;;6221961;28;20048;-76
2021/07/22 08:58:27;;;;;;;10.85;6.68;;;26.30;52.60;;;;;;6221327;28;20053;-76
2021/07/22 09:01:33;;;;;;;6.13;4.78;;;26.30;53.20;;;;;;6222340;28;20087;-77
2021/07/22 09:04:53;;;;;;;7.00;5.55;;;26.30;53.30;;;;;;6221340;28;20077;-77
2021/07/22 09:07:55;;;;;;;6.95;5.43;;;26.40;53.40;;;;;;6221432;28;20046;-76
2021/07/22 09:11:06;;;;;;;5.22;4.72;;;26.60;54.00;;;;;;6221094;28;20053;-76
2021/07/22 09:14:10;;;;;;;9.40;5.82;;;26.80;53.50;;;;;;6206898;28;20054;-75
2021/07/22 09:17:27;;;;;;;6.03;5.10;;;26.90;52.70;;;;;;6197033;28;20051;-76
2021/07/22 09:20:32;;;;;;;9.27;6.43;;;27.00;51.60;;;;;;6206425;28;20042;-76
2021/07/22 09:23:33;;;;;;;19.05;6.65;;;27.00;51.80;;;;;;6203665;28;20130;-76
2021/07/22 09:26:37;;;;;;;6.07;5.47;;;27.00;52.10;;;;;;6201180;28;20066;-76
2021/07/22 09:29:58;;;;;;;6.30;5.45;;;27.00;51.70;;;;;;6202270;28;20085;-75
2021/07/22 09:33:00;;;;;;;6.70;5.85;;;27.30;51.60;;;;;;6201276;28;20415;-75
2021/07/22 09:36:02;;;;;;;4.53;3.85;;;27.40;50.10;;;;;;6200605;28;20082;-74
2021/07/22 09:39:23;;;;;;;6.38;4.05;;;27.50;50.80;;;;;;6201248;28;20464;-75
2021/07/22 09:42:25;;;;;;;7.60;4.55;;;27.50;49.60;;;;;;6200967;28;20148;-74
2021/07/22 09:45:31;;;;;;;15.73;8.13;;;27.60;50.00;;;;;;6201656;28;20054;-73
2021/07/22 09:48:33;;;;;;;6.68;5.25;;;27.50;48.90;;;;;;6200434;28;20054;-74
2021/07/22 09:51:34;;;;;;;5.97;5.38;;;27.50;49.80;;;;;;6200365;28;20089;-74
2021/07/22 09:54:38;;;;;;;8.85;6.28;;;27.60;49.50;;;;;;6199952;28;20499;-74
2021/07/22 09:57:42;;;;;;;10.90;6.18;;;27.70;50.00;;;;;;6201124;28;20090;-74
2021/07/22 10:00:48;;;;;;;9.52;8.27;;;28.00;50.00;;;;;;6200573;28;20253;-74
2021/07/22 10:03:50;;;;;;;6.93;5.07;;;28.20;49.30;;;;;;6200783;28;20120;-74
2021/07/22 10:06:53;;;;;;;6.57;5.03;;;28.40;48.90;;;;;;6200484;28;20050;-75
2021/07/22 10:09:58;;;;;;;6.50;5.10;;;28.50;48.70;;;;;;6201248;28;20134;-74
2021/07/22 10:13:03;;;;;;;6.50;5.43;;;28.70;46.90;;;;;;6200082;28;20100;-75
2021/07/22 10:16:10;;;;;;;7.57;5.63;;;28.80;47.70;;;;;;6200491;28;20081;-74
2021/07/22 10:19:13;;;;;;;9.60;8.02;;;29.00;47.60;;;;;;6200469;28;20054;-75
2021/07/22 10:22:15;;;;;;;5.43;4.95;;;29.20;47.50;;;;;;6212560;28;20587;-75
2021/07/22 10:25:17;;;;;;;5.75;4.50;;;29.50;46.90;;;;;;6224754;28;20073;-75
2021/07/22 10:28:19;;;;;;;7.10;4.50;;;29.70;46.30;;;;;;6224125;28;20064;-74
2021/07/22 10:31:23;;;;;;;5.60;4.85;;;29.80;45.20;;;;;;6224055;28;20129;-75
2021/07/22 10:34:26;;;;;;;5.38;4.70;;;29.90;45.90;;;;;;6224027;28;20050;-74
2021/07/22 10:37:28;;;;;;;7.50;5.45;;;29.80;44.10;;;;;;6224552;28;20140;-74
2021/07/22 10:40:45;;;;;;;5.47;4.95;;;29.70;43.90;;;;;;6224168;28;20042;-74
2021/07/22 10:43:47;;;;;;;4.40;4.00;;;29.50;43.90;;;;;;6223995;28;20073;-74
2021/07/22 10:46:55;;;;;;;8.95;5.82;;;29.50;45.70;;;;;;6223612;28;20046;-74
2021/07/22 10:49:56;;;;;;;9.02;4.55;;;29.70;45.70;;;;;;6224119;28;20050;-74
2021/07/22 10:53:01;;;;;;;7.15;4.75;;;30.00;44.90;;;;;;6223700;28;20125;-74
2021/07/22 10:56:03;;;;;;;5.88;5.00;;;30.20;44.70;;;;;;6224173;28;20099;-75
2021/07/22 10:59:05;;;;;;;7.97;4.70;;;30.40;43.30;;;;;;6224153;28;20567;-74
2021/07/22 11:02:08;;;;;;;8.25;4.47;;;30.40;43.60;;;;;;6225469;28;20056;-75
2021/07/22 11:05:11;;;;;;;5.88;5.10;;;30.50;42.50;;;;;;6248995;28;20073;-75
2021/07/22 11:08:21;;;;;;;9.48;5.63;;;30.60;43.60;;;;;;6248320;28;20132;-74
2021/07/22 11:11:23;;;;;;;6.65;4.75;;;30.70;43.70;;;;;;6248657;28;20138;-75
2021/07/22 11:14:32;;;;;;;7.18;5.20;;;30.70;44.40;;;;;;6231403;28;20077;-75
2021/07/22 11:17:36;;;;;;;6.03;4.60;;;30.90;43.30;;;;;;6223114;28;20065;-75
2021/07/22 11:20:39;;;;;;;6.90;4.40;;;31.10;42.90;;;;;;6222820;28;20050;-75
2021/07/22 11:23:41;;;;;;;7.95;5.50;;;31.20;43.50;;;;;;6230002;28;20129;-75
2021/07/22 11:26:43;;;;;;;7.78;4.88;;;31.30;43.20;;;;;;6222371;28;20054;-76
2021/07/22 11:29:46;;;;;;;6.57;5.65;;;31.50;42.50;;;;;;6223133;28;20054;-76
2021/07/22 11:32:49;;;;;;;10.02;5.60;;;31.60;42.20;;;;;;6222765;28;20046;-76
2021/07/22 11:35:56;;;;;;;10.32;4.65;;;31.70;41.80;;;;;;6222994;28;20050;-76
2021/07/22 11:38:59;;;;;;;11.00;5.03;;;31.80;41.80;;;;;;6222362;28;20574;-75
2021/07/22 11:42:05;;;;;;;5.03;4.45;;;31.90;40.90;;;;;;6222625;28;20049;-75
2021/07/22 11:45:08;;;;;;;5.73;5.13;;;32.00;42.00;;;;;;6222647;28;20058;-75
2021/07/22 11:48:24;;;;;;;7.13;5.57;;;32.10;41.60;;;;;;6222226;28;20509;-75
2021/07/22 11:51:30;;;;;;;9.43;5.20;;;32.30;40.70;;;;;;6222707;28;20046;-75
2021/07/22 11:54:31;;;;;;;6.13;5.53;;;32.40;40.20;;;;;;6221974;28;20394;-75
2021/07/22 11:57:37;;;;;;;5.78;4.63;;;32.40;40.30;;;;;;6222045;28;20081;-75
2021/07/22 12:00:39;;;;;;;10.07;5.80;;;32.50;40.10;;;;;;6221899;28;20077;-75
2021/07/22 12:03:46;;;;;;;7.15;6.45;;;32.50;39.90;;;;;;6221645;28;20511;-74
2021/07/22 12:06:50;;;;;;;;;;;32.30;40.00;;;;;;6222796;28;20068;-74
2021/07/22 12:09:53;;;;;;;6.15;4.68;;;32.30;40.60;;;;;;6222735;28;20004;-75
2021/07/22 12:12:57;;;;;;;10.75;5.72;;;32.20;40.10;;;;;;6221980;28;20055;-76
2021/07/22 12:15:59;;;;;;;8.32;5.63;;;32.20;40.20;;;;;;6221775;28;20133;-74
2021/07/22 12:19:03;;;;;;;6.97;5.53;;;32.30;40.30;;;;;;6222303;28;20041;-74
2021/07/22 12:22:21;;;;;;;6.15;4.55;;;32.40;40.10;;;;;;6224029;28;20045;-74
2021/07/22 12:25:24;;;;;;;;;;;32.40;39.70;;;;;;6243134;28;20075;-74
2021/07/22 12:28:26;;;;;;;13.88;4.93;;;32.40;40.10;;;;;;6246124;28;19921;-74
2021/07/22 12:31:38;;;;;;;5.22;4.55;;;32.40;39.40;;;;;;6246414;28;20049;-75
2021/07/22 12:34:41;;;;;;;10.18;4.95;;;32.60;39.10;;;;;;6246199;28;20060;-75
2021/07/22 12:37:57;;;;;;;5.70;4.72;;;32.70;39.40;;;;;;6246608;28;20483;-76
2021/07/22 12:41:10;;;;;;;6.63;5.93;;;32.80;38.80;;;;;;6245831;28;20111;-75
2021/07/22 12:44:31;;;;;;;13.98;6.07;;;32.90;38.20;;;;;;6245937;28;20510;-75
2021/07/22 12:47:35;;;;;;;10.02;5.20;;;33.00;38.70;;;;;;6245665;28;20045;-75
2021/07/22 12:50:43;;;;;;;10.85;5.90;;;33.10;37.90;;;;;;6246245;28;20055;-75
2021/07/22 12:53:46;;;;;;;7.97;6.15;;;32.80;39.10;;;;;;6246396;28;20057;-75
2021/07/22 12:56:48;;;;;;;7.85;5.72;;;32.80;38.20;;;;;;6249760;28;20053;-75
2021/07/22 12:59:50;;;;;;;10.15;5.53;;;33.00;38.10;;;;;;6250648;28;20103;-76
2021/07/22 13:02:56;;;;;;;5.10;4.57;;;33.10;37.30;;;;;;6250937;28;20073;-76
2021/07/22 13:05:59;;;;;;;7.07;5.47;;;33.20;37.90;;;;;;6250752;28;20755;-76
2021/07/22 13:09:01;;;;;;;6.45;5.28;;;33.40;37.10;;;;;;6250629;28;20124;-75
2021/07/22 13:12:04;;;;;;;13.20;4.93;;;33.50;37.00;;;;;;6250273;28;20072;-75
2021/07/22 13:15:07;;;;;;;8.88;4.60;;;33.50;36.80;;;;;;6228301;28;20439;-76
2021/07/22 13:18:08;;;;;;;5.70;4.18;;;33.60;36.60;;;;;;6226168;28;20133;-76
2021/07/22 13:21:14;;;;;;;7.90;5.68;;;33.50;36.20;;;;;;6225853;28;20535;-75
2021/07/22 13:24:15;;;;;;;9.98;5.10;;;33.30;36.70;;;;;;6230116;28;20046;-76
2021/07/22 13:27:17;;;;;;;9.13;5.32;;;33.20;36.80;;;;;;6224600;28;20080;-76
2021/07/22 13:30:19;;;;;;;10.55;5.80;;;33.30;37.40;;;;;;6225914;28;20060;-76
2021/07/22 13:33:21;;;;;;;9.07;6.43;;;33.40;37.30;;;;;;6225566;28;20125;-76
2021/07/22 13:36:24;;;;;;;6.95;5.53;;;33.50;37.60;;;;;;6225055;28;20189;-77
2021/07/22 13:39:26;;;;;;;5.82;5.20;;;33.60;37.10;;;;;;6225121;28;20180;-76
2021/07/22 13:42:28;;;;;;;7.60;5.03;;;33.70;37.10;;;;;;6224984;28;20602;-76
2021/07/22 13:45:30;;;;;;;10.63;6.15;;;33.70;37.40;;;;;;6225461;28;20782;-76
2021/07/22 13:48:32;;;;;;;8.13;5.72;;;33.80;36.90;;;;;;6224824;28;20042;-76
2021/07/22 13:51:35;;;;;;;10.57;5.93;;;33.80;37.00;;;;;;6224978;28;20111;-76
2021/07/22 13:54:39;;;;;;;10.70;5.75;;;33.80;37.20;;;;;;6224836;28;20050;-76
2021/07/22 13:57:41;;;;;;;8.15;6.00;;;33.90;37.20;;;;;;6225162;28;20049;-75
2021/07/22 14:00:42;;;;;;;7.22;6.50;;;33.80;36.50;;;;;;6224820;28;20115;-75
2021/07/22 14:03:44;;;;;;;12.77;5.38;;;33.80;36.70;;;;;;6224631;28;20129;-75
2021/07/22 14:06:47;;;;;;;6.57;5.70;;;33.80;37.40;;;;;;6223948;28;20069;-75
2021/07/22 14:09:49;;;;;;;12.65;5.10;;;33.70;37.10;;;;;;6225087;28;20187;-75
2021/07/22 14:12:51;;;;;;;12.10;6.82;;;33.30;36.90;;;;;;6224356;28;20069;-75
2021/07/22 14:15:53;;;;;;;8.55;5.53;;;33.00;38.20;;;;;;6224224;28;20050;-75
2021/07/22 14:18:55;;;;;;;7.20;5.78;;;33.10;38.70;;;;;;6224525;28;20100;-75
2021/07/22 14:21:58;;;;;;;10.80;6.38;;;33.00;38.30;;;;;;6224845;28;20140;-75
2021/07/22 14:25:00;;;;;;;10.10;5.90;;;33.00;39.00;;;;;;6232817;28;20085;-74
2021/07/22 14:28:02;;;;;;;9.25;5.68;;;33.10;38.10;;;;;;6245172;28;20110;-74
2021/07/22 14:31:04;;;;;;;27.58;6.40;;;33.20;38.00;;;;;;6248739;28;20049;-74
2021/07/22 14:34:06;;;;;;;8.30;7.10;;;33.30;37.40;;;;;;6249722;28;20050;-74
2021/07/22 14:37:09;;;;;;;16.80;6.95;;;33.50;37.30;;;;;;6248943;28;20056;-74
2021/07/22 14:40:12;;;;;;;7.35;5.90;;;33.60;36.80;;;;;;6248291;28;20054;-74
2021/07/22 14:43:13;;;;;;;8.15;6.03;;;33.70;37.60;;;;;;6248146;28;20041;-74
2021/07/22 14:46:15;;;;;;;9.65;6.88;;;33.60;37.20;;;;;;6247811;28;20462;-74
2021/07/22 14:49:17;;;;;;;9.73;6.13;;;33.60;37.00;;;;;;6248489;28;20055;-74
2021/07/22 14:52:20;;;;;;;8.25;5.95;;;33.70;37.20;;;;;;6248256;28;20124;-74
2021/07/22 14:55:22;;;;;;;7.00;6.28;;;33.70;37.20;;;;;;6248390;28;20128;-74
2021/07/22 14:58:24;;;;;;;10.05;6.00;;;33.50;37.80;;;;;;6247650;28;20060;-74
2021/07/22 15:01:26;;;;;;;9.07;5.45;;;33.40;37.40;;;;;;6248619;28;20119;-73
2021/07/22 15:04:27;;;;;;;10.02;7.00;;;33.20;37.10;;;;;;6247581;28;20060;-75
2021/07/22 15:07:31;;;;;;;7.80;5.90;;;32.90;38.00;;;;;;6247677;28;20128;-74
2021/07/22 15:10:32;;;;;;;11.90;6.55;;;32.70;38.60;;;;;;6247718;28;20510;-74
2021/07/22 15:13:34;;;;;;;7.50;5.55;;;32.70;38.70;;;;;;6238624;28;20132;-74
2021/07/22 15:16:36;;;;;;;14.05;6.55;;;32.70;39.00;;;;;;6222754;28;20080;-74
2021/07/22 15:19:39;;;;;;;9.25;6.22;;;32.50;38.60;;;;;;6222593;28;20045;-74
2021/07/22 15:22:42;;;;;;;8.55;7.07;;;32.70;38.30;;;;;;6222798;28;20053;-74
2021/07/22 15:25:44;;;;;;;8.63;6.50;;;32.80;38.60;;;;;;6227489;28;20139;-75
2021/07/22 15:28:46;;;;;;;8.40;6.78;;;32.80;37.70;;;;;;6225130;28;20125;-74
2021/07/22 15:31:48;;;;;;;8.75;5.80;;;32.90;37.90;;;;;;6222747;28;20460;-74
2021/07/22 15:34:50;;;;;;;6.90;5.55;;;33.00;37.40;;;;;;6223108;28;20132;-74
2021/07/22 15:37:53;;;;;;;7.50;5.55;;;32.90;37.40;;;;;;6222716;28;20085;-74
2021/07/22 15:40:55;;;;;;;6.60;5.90;;;32.90;37.60;;;;;;6222876;28;20132;-74
2021/07/22 15:43:57;;;;;;;8.20;6.43;;;32.80;37.10;;;;;;6222052;28;20140;-74
2021/07/22 15:46:58;;;;;;;7.45;6.00;;;32.50;38.00;;;;;;6222322;28;20080;-74